Alden Manor, New York
Current Conditions -  °F | °C
As of 4:51 PM on Tuesday 21 Oct 2014 (Local Time) from KJFK Reporting Station
Broken Clouds Broken Clouds  
Wind Chill: 17°   Ceiling: 11000
Heat Index: 17°   Visibility: 10mi
Dew Point: 14°   Wind: 7mph
Humidity: 81%   Direction: 100°E
Pressure: 29.83"   Gusts: NA
Location:  40.7013°N, 73.7074°W
Report Text: KJFK 212051Z 10006KT 10SM FEW020 SCT035 BKN110 BKN240 17/14 A2983 RMK AO2 SLP102 60003 T01720139 56008
Loading
Personal Weather Stations






























Interactive Weather Map
Tropical Storm Tracking
New forecast layout! Learn more

10-Day Weather Forecast

Advertisements
Track Severe Weather on mobile